SWA208 KCVG-KBWI
Flight info
| Callsign | SWA208 |
|---|---|
| Flight time | 1h 3m |
| Altitude | 37000 |
| Route | ROCKT4 AHTIY KEMAN ANTHM5 |
| Aircraft | B738/M-SDE2E3FGHIRWXY/LB1 |
Departure
| Time | 2026-05-06 10:41 |
|---|---|
| Airport | Cincinnati Northern Kentucky International Airport (KCVG) |
Arrival
| Time | 2026-05-06 11:45 |
|---|---|
| Airport | Baltimore/Washington International Thurgood Marshall Airport (KBWI) |
| Time | Latitude | Longitude | Altitude | Speed | Heading |
|---|---|---|---|---|---|
| 2026-05-06 10:35 | 39.05213 | -84.65612 | 885 ft | 0 kts | 81° |
| 2026-05-06 10:36 | 39.05210 | -84.65572 | 886 ft | 8 kts | 106° |
| 2026-05-06 10:36 | 39.05187 | -84.65495 | 887 ft | 10 kts | 111° |
| 2026-05-06 10:37 | 39.05163 | -84.65413 | 887 ft | 10 kts | 110° |
| 2026-05-06 10:37 | 39.05156 | -84.65329 | 889 ft | 9 kts | 91° |
| 2026-05-06 10:37 | 39.05155 | -84.65245 | 890 ft | 9 kts | 91° |
| 2026-05-06 10:37 | 39.05154 | -84.65164 | 891 ft | 9 kts | 91° |
| 2026-05-06 10:38 | 39.05153 | -84.65085 | 892 ft | 9 kts | 91° |
| 2026-05-06 10:38 | 39.05146 | -84.65003 | 893 ft | 11 kts | 125° |
| 2026-05-06 10:38 | 39.05065 | -84.64986 | 893 ft | 14 kts | 180° |
| 2026-05-06 10:38 | 39.04959 | -84.64987 | 893 ft | 16 kts | 180° |
| 2026-05-06 10:39 | 39.04866 | -84.64986 | 892 ft | 8 kts | 179° |
| 2026-05-06 10:39 | 39.04814 | -84.65000 | 891 ft | 8 kts | 232° |
| 2026-05-06 10:39 | 39.04810 | -84.65079 | 889 ft | 10 kts | 269° |
| 2026-05-06 10:39 | 39.04810 | -84.65175 | 887 ft | 11 kts | 270° |
| 2026-05-06 10:40 | 39.04801 | -84.65277 | 885 ft | 12 kts | 232° |
| 2026-05-06 10:40 | 39.04722 | -84.65298 | 884 ft | 12 kts | 179° |
| 2026-05-06 10:40 | 39.04649 | -84.65298 | 884 ft | 7 kts | 192° |
| 2026-05-06 10:40 | 39.04629 | -84.65353 | 883 ft | 7 kts | 268° |
| 2026-05-06 10:41 | 39.04629 | -84.65492 | 882 ft | 42 kts | 270° |
| 2026-05-06 10:41 | 39.04631 | -84.66230 | 877 ft | 122 kts | 269° |
| 2026-05-06 10:41 | 39.04619 | -84.67611 | 1002 ft | 177 kts | 272° |
| 2026-05-06 10:41 | 39.04601 | -84.69252 | 1826 ft | 187 kts | 268° |
| 2026-05-06 10:42 | 39.04581 | -84.70931 | 2766 ft | 187 kts | 267° |
| 2026-05-06 10:42 | 39.04534 | -84.72526 | 3843 ft | 171 kts | 268° |
| 2026-05-06 10:42 | 39.04491 | -84.74065 | 4632 ft | 176 kts | 265° |
| 2026-05-06 10:42 | 39.04460 | -84.75710 | 4952 ft | 197 kts | 271° |
| 2026-05-06 10:43 | 39.04520 | -84.77567 | 5205 ft | 217 kts | 270° |
| 2026-05-06 10:43 | 39.04564 | -84.79543 | 5712 ft | 226 kts | 271° |
| 2026-05-06 10:43 | 39.05063 | -84.81542 | 6040 ft | 251 kts | 303° |
| 2026-05-06 10:44 | 39.08244 | -84.83771 | 7619 ft | 275 kts | 340° |
| 2026-05-06 10:44 | 39.10132 | -84.84309 | 8415 ft | 281 kts | 342° |
| 2026-05-06 10:44 | 39.12063 | -84.84808 | 9226 ft | 285 kts | 342° |
| 2026-05-06 10:44 | 39.14010 | -84.85319 | 9832 ft | 283 kts | 342° |
| 2026-05-06 10:45 | 39.15981 | -84.85685 | 10349 ft | 302 kts | 357° |
| 2026-05-06 10:45 | 39.18114 | -84.84890 | 10541 ft | 341 kts | 25° |
| 2026-05-06 10:45 | 39.20003 | -84.82844 | 10773 ft | 371 kts | 48° |
| 2026-05-06 10:45 | 39.21310 | -84.79912 | 11294 ft | 384 kts | 68° |
| 2026-05-06 10:46 | 39.21925 | -84.76543 | 11966 ft | 390 kts | 85° |
| 2026-05-06 10:46 | 39.21983 | -84.73039 | 12692 ft | 393 kts | 93° |
| 2026-05-06 10:46 | 39.21821 | -84.69495 | 13379 ft | 398 kts | 96° |
| 2026-05-06 10:46 | 39.21603 | -84.65917 | 14032 ft | 403 kts | 96° |
| 2026-05-06 10:47 | 39.21396 | -84.62294 | 14679 ft | 407 kts | 95° |
| 2026-05-06 10:47 | 39.21218 | -84.58627 | 15327 ft | 412 kts | 95° |
| 2026-05-06 10:47 | 39.21069 | -84.54920 | 15940 ft | 416 kts | 94° |
| 2026-05-06 10:47 | 39.20940 | -84.51231 | 16575 ft | 420 kts | 94° |
| 2026-05-06 10:48 | 39.20819 | -84.47452 | 17183 ft | 424 kts | 93° |
| 2026-05-06 10:48 | 39.20701 | -84.43635 | 17807 ft | 428 kts | 93° |
| 2026-05-06 10:48 | 39.20583 | -84.39779 | 18390 ft | 432 kts | 93° |
| 2026-05-06 10:48 | 39.20462 | -84.35889 | 18927 ft | 436 kts | 93° |
| 2026-05-06 10:49 | 39.20339 | -84.31969 | 19458 ft | 440 kts | 93° |
| 2026-05-06 10:49 | 39.20212 | -84.28013 | 19974 ft | 443 kts | 93° |
| 2026-05-06 10:49 | 39.20082 | -84.24030 | 20512 ft | 447 kts | 93° |
| 2026-05-06 10:49 | 39.19950 | -84.20015 | 21028 ft | 450 kts | 93° |
| 2026-05-06 10:50 | 39.19815 | -84.15968 | 21531 ft | 454 kts | 93° |
| 2026-05-06 10:50 | 39.19678 | -84.11887 | 22008 ft | 458 kts | 93° |
| 2026-05-06 10:50 | 39.19539 | -84.07776 | 22538 ft | 460 kts | 93° |
| 2026-05-06 10:50 | 39.19398 | -84.03653 | 23068 ft | 462 kts | 93° |
| 2026-05-06 10:51 | 39.19472 | -83.99494 | 23508 ft | 466 kts | 83° |
| 2026-05-06 10:51 | 39.20059 | -83.95374 | 23858 ft | 469 kts | 73° |
| 2026-05-06 10:51 | 39.21112 | -83.91400 | 24277 ft | 468 kts | 63° |
| 2026-05-06 10:51 | 39.22532 | -83.87625 | 24738 ft | 468 kts | 60° |
| 2026-05-06 10:52 | 39.24017 | -83.83876 | 25147 ft | 470 kts | 60° |
| 2026-05-06 10:52 | 39.25512 | -83.80108 | 25510 ft | 473 kts | 60° |
| 2026-05-06 10:52 | 39.27000 | -83.76300 | 25884 ft | 477 kts | 60° |
| 2026-05-06 10:52 | 39.28475 | -83.72460 | 26255 ft | 479 kts | 61° |
| 2026-05-06 10:53 | 39.29947 | -83.68584 | 26617 ft | 482 kts | 61° |
| 2026-05-06 10:53 | 39.31422 | -83.64685 | 26976 ft | 485 kts | 61° |
| 2026-05-06 10:53 | 39.32904 | -83.60764 | 27366 ft | 486 kts | 61° |
| 2026-05-06 10:53 | 39.34390 | -83.56834 | 27740 ft | 488 kts | 61° |
| 2026-05-06 10:54 | 39.35883 | -83.52881 | 28062 ft | 491 kts | 61° |
| 2026-05-06 10:54 | 39.36876 | -83.50249 | 28274 ft | 493 kts | 61° |
| 2026-05-06 10:54 | 39.38891 | -83.44901 | 28720 ft | 496 kts | 61° |
| 2026-05-06 10:54 | 39.39891 | -83.42244 | 28932 ft | 497 kts | 61° |
| 2026-05-06 10:55 | 39.41405 | -83.38212 | 29241 ft | 500 kts | 61° |
| 2026-05-06 10:55 | 39.42924 | -83.34163 | 29547 ft | 502 kts | 61° |
| 2026-05-06 10:55 | 39.44453 | -83.30082 | 29827 ft | 505 kts | 61° |
| 2026-05-06 10:55 | 39.45985 | -83.25984 | 30115 ft | 507 kts | 61° |
| 2026-05-06 10:56 | 39.47519 | -83.21879 | 30423 ft | 507 kts | 61° |
| 2026-05-06 10:56 | 39.49049 | -83.17778 | 30781 ft | 506 kts | 61° |
| 2026-05-06 10:56 | 39.50581 | -83.13683 | 31164 ft | 504 kts | 60° |
| 2026-05-06 10:56 | 39.52128 | -83.09619 | 31538 ft | 502 kts | 60° |
| 2026-05-06 10:57 | 39.53680 | -83.05568 | 31845 ft | 502 kts | 60° |
| 2026-05-06 10:57 | 39.55235 | -83.01509 | 32127 ft | 503 kts | 60° |
| 2026-05-06 10:57 | 39.56786 | -82.97445 | 32438 ft | 503 kts | 60° |
| 2026-05-06 10:57 | 39.58327 | -82.93389 | 32797 ft | 501 kts | 60° |
| 2026-05-06 10:58 | 39.59796 | -82.89284 | 33128 ft | 503 kts | 65° |
| 2026-05-06 10:58 | 39.60868 | -82.84955 | 33407 ft | 507 kts | 74° |
| 2026-05-06 10:58 | 39.61439 | -82.80435 | 33665 ft | 509 kts | 82° |
| 2026-05-06 10:58 | 39.61792 | -82.75871 | 33996 ft | 507 kts | 83° |
| 2026-05-06 10:59 | 39.62103 | -82.71321 | 34277 ft | 507 kts | 83° |
| 2026-05-06 10:59 | 39.62411 | -82.66769 | 34510 ft | 506 kts | 83° |
| 2026-05-06 10:59 | 39.62726 | -82.62281 | 34754 ft | 506 kts | 82° |
| 2026-05-06 10:59 | 39.63059 | -82.57744 | 35040 ft | 504 kts | 82° |
| 2026-05-06 11:00 | 39.63402 | -82.53229 | 35350 ft | 502 kts | 82° |
| 2026-05-06 11:00 | 39.63867 | -82.47210 | 35713 ft | 500 kts | 81° |
| 2026-05-06 11:00 | 39.64098 | -82.44239 | 35907 ft | 499 kts | 81° |
| 2026-05-06 11:00 | 39.64443 | -82.39776 | 36284 ft | 495 kts | 81° |
| 2026-05-06 11:01 | 39.64783 | -82.35352 | 36635 ft | 491 kts | 81° |
| 2026-05-06 11:01 | 39.65119 | -82.30950 | 36857 ft | 491 kts | 81° |
| 2026-05-06 11:01 | 39.65456 | -82.26521 | 36834 ft | 494 kts | 81° |
| 2026-05-06 11:02 | 39.66123 | -82.17657 | 36809 ft | 491 kts | 81° |
| 2026-05-06 11:02 | 39.66769 | -82.08924 | 36827 ft | 483 kts | 81° |
| 2026-05-06 11:03 | 39.67407 | -82.00257 | 36820 ft | 483 kts | 82° |
| 2026-05-06 11:03 | 39.68039 | -81.91582 | 36833 ft | 483 kts | 82° |
| 2026-05-06 11:04 | 39.68665 | -81.82902 | 36829 ft | 483 kts | 82° |
| 2026-05-06 11:04 | 39.69284 | -81.74216 | 36814 ft | 483 kts | 82° |
| 2026-05-06 11:05 | 39.69896 | -81.65532 | 36818 ft | 483 kts | 82° |
| 2026-05-06 11:05 | 39.70502 | -81.56847 | 36813 ft | 483 kts | 83° |
| 2026-05-06 11:06 | 39.71102 | -81.48163 | 36818 ft | 483 kts | 83° |
| 2026-05-06 11:06 | 39.71814 | -81.39502 | 36794 ft | 481 kts | 75° |
| 2026-05-06 11:07 | 39.73415 | -81.31164 | 36811 ft | 479 kts | 72° |
| 2026-05-06 11:07 | 39.75146 | -81.22806 | 36803 ft | 480 kts | 72° |
| 2026-05-06 11:08 | 39.76838 | -81.14409 | 36810 ft | 480 kts | 73° |
| 2026-05-06 11:08 | 39.78491 | -81.05987 | 36801 ft | 482 kts | 73° |
| 2026-05-06 11:09 | 39.79278 | -80.97326 | 36822 ft | 485 kts | 89° |
| 2026-05-06 11:09 | 39.79144 | -80.88520 | 36809 ft | 490 kts | 91° |
| 2026-05-06 11:10 | 39.78979 | -80.79609 | 36826 ft | 497 kts | 90° |
| 2026-05-06 11:10 | 39.78864 | -80.70565 | 36812 ft | 504 kts | 90° |
| 2026-05-06 11:11 | 39.78773 | -80.61415 | 36822 ft | 508 kts | 90° |
| 2026-05-06 11:11 | 39.78677 | -80.52206 | 36808 ft | 511 kts | 90° |
| 2026-05-06 11:12 | 39.78572 | -80.42954 | 36821 ft | 512 kts | 90° |
| 2026-05-06 11:12 | 39.78456 | -80.33689 | 36812 ft | 512 kts | 90° |
| 2026-05-06 11:13 | 39.78333 | -80.24432 | 36835 ft | 512 kts | 90° |
| 2026-05-06 11:13 | 39.78203 | -80.15183 | 36824 ft | 511 kts | 90° |
| 2026-05-06 11:14 | 39.78066 | -80.05961 | 36848 ft | 509 kts | 90° |
| 2026-05-06 11:14 | 39.77922 | -79.96770 | 36833 ft | 508 kts | 90° |
| 2026-05-06 11:15 | 39.77772 | -79.87594 | 36848 ft | 507 kts | 90° |
| 2026-05-06 11:15 | 39.77614 | -79.78429 | 36837 ft | 507 kts | 91° |
| 2026-05-06 11:16 | 39.77451 | -79.69275 | 36844 ft | 507 kts | 91° |
| 2026-05-06 11:16 | 39.77202 | -79.60124 | 36824 ft | 506 kts | 96° |
| 2026-05-06 11:16 | 39.76626 | -79.55590 | 36372 ft | 512 kts | 105° |
| 2026-05-06 11:17 | 39.75660 | -79.51150 | 35842 ft | 509 kts | 108° |
| 2026-05-06 11:17 | 39.74622 | -79.46752 | 35181 ft | 509 kts | 108° |
| 2026-05-06 11:17 | 39.73575 | -79.42360 | 34514 ft | 509 kts | 108° |
| 2026-05-06 11:17 | 39.72544 | -79.37956 | 33857 ft | 510 kts | 108° |
| 2026-05-06 11:18 | 39.71534 | -79.33535 | 33069 ft | 511 kts | 107° |
| 2026-05-06 11:18 | 39.70552 | -79.29167 | 32324 ft | 512 kts | 107° |
| 2026-05-06 11:18 | 39.69559 | -79.24717 | 31568 ft | 512 kts | 107° |
| 2026-05-06 11:18 | 39.68566 | -79.20273 | 30808 ft | 513 kts | 108° |
| 2026-05-06 11:19 | 39.67568 | -79.15824 | 30053 ft | 514 kts | 108° |
| 2026-05-06 11:19 | 39.66563 | -79.11363 | 29152 ft | 516 kts | 108° |
| 2026-05-06 11:19 | 39.65559 | -79.06895 | 28442 ft | 513 kts | 108° |
| 2026-05-06 11:19 | 39.64589 | -79.02476 | 27915 ft | 506 kts | 108° |
| 2026-05-06 11:20 | 39.63645 | -78.98119 | 27406 ft | 498 kts | 108° |
| 2026-05-06 11:20 | 39.62717 | -78.93827 | 26866 ft | 492 kts | 108° |
| 2026-05-06 11:20 | 39.61788 | -78.89553 | 26365 ft | 492 kts | 108° |
| 2026-05-06 11:20 | 39.60853 | -78.85278 | 25848 ft | 493 kts | 108° |
| 2026-05-06 11:21 | 39.59920 | -78.81023 | 25332 ft | 488 kts | 108° |
| 2026-05-06 11:21 | 39.58996 | -78.76816 | 24824 ft | 482 kts | 108° |
| 2026-05-06 11:21 | 39.58079 | -78.72656 | 24320 ft | 477 kts | 109° |
| 2026-05-06 11:21 | 39.57171 | -78.68542 | 23679 ft | 473 kts | 110° |
| 2026-05-06 11:22 | 39.56254 | -78.64405 | 23240 ft | 482 kts | 110° |
| 2026-05-06 11:22 | 39.55322 | -78.60206 | 22677 ft | 486 kts | 110° |
| 2026-05-06 11:22 | 39.54418 | -78.56012 | 22136 ft | 481 kts | 109° |
| 2026-05-06 11:22 | 39.53540 | -78.51855 | 21627 ft | 475 kts | 109° |
| 2026-05-06 11:23 | 39.52673 | -78.47748 | 21117 ft | 470 kts | 109° |
| 2026-05-06 11:23 | 39.51810 | -78.43690 | 20614 ft | 465 kts | 109° |
| 2026-05-06 11:23 | 39.50949 | -78.39676 | 20108 ft | 461 kts | 109° |
| 2026-05-06 11:23 | 39.50071 | -78.35703 | 19645 ft | 457 kts | 110° |
| 2026-05-06 11:24 | 39.49181 | -78.31772 | 19159 ft | 453 kts | 110° |
| 2026-05-06 11:24 | 39.48294 | -78.27874 | 18705 ft | 450 kts | 110° |
| 2026-05-06 11:24 | 39.47411 | -78.23990 | 18209 ft | 449 kts | 110° |
| 2026-05-06 11:24 | 39.46538 | -78.20133 | 17688 ft | 445 kts | 110° |
| 2026-05-06 11:25 | 39.45675 | -78.16315 | 17193 ft | 439 kts | 111° |
| 2026-05-06 11:25 | 39.44993 | -78.12482 | 16695 ft | 439 kts | 98° |
| 2026-05-06 11:25 | 39.44976 | -78.08544 | 16273 ft | 435 kts | 91° |
| 2026-05-06 11:25 | 39.45056 | -78.04705 | 15803 ft | 430 kts | 92° |
| 2026-05-06 11:26 | 39.45099 | -78.00857 | 15357 ft | 424 kts | 93° |
| 2026-05-06 11:26 | 39.45107 | -77.97078 | 14991 ft | 417 kts | 94° |
| 2026-05-06 11:26 | 39.45100 | -77.93363 | 14683 ft | 409 kts | 94° |
| 2026-05-06 11:26 | 39.45093 | -77.89720 | 14381 ft | 401 kts | 95° |
| 2026-05-06 11:27 | 39.45087 | -77.86147 | 14086 ft | 394 kts | 95° |
| 2026-05-06 11:27 | 39.45080 | -77.82637 | 13795 ft | 387 kts | 95° |
| 2026-05-06 11:27 | 39.45074 | -77.79184 | 13474 ft | 381 kts | 95° |
| 2026-05-06 11:27 | 39.45066 | -77.75779 | 13162 ft | 377 kts | 95° |
| 2026-05-06 11:28 | 39.45055 | -77.72418 | 12925 ft | 369 kts | 95° |
| 2026-05-06 11:28 | 39.45030 | -77.69134 | 12836 ft | 363 kts | 96° |
| 2026-05-06 11:28 | 39.44995 | -77.65859 | 12770 ft | 364 kts | 96° |
| 2026-05-06 11:28 | 39.44956 | -77.62570 | 12689 ft | 367 kts | 96° |
| 2026-05-06 11:29 | 39.44919 | -77.59279 | 12581 ft | 365 kts | 96° |
| 2026-05-06 11:29 | 39.44882 | -77.55993 | 12492 ft | 365 kts | 95° |
| 2026-05-06 11:29 | 39.44846 | -77.52710 | 12397 ft | 365 kts | 96° |
| 2026-05-06 11:29 | 39.44809 | -77.49433 | 12309 ft | 364 kts | 96° |
| 2026-05-06 11:30 | 39.44772 | -77.46163 | 12204 ft | 363 kts | 96° |
| 2026-05-06 11:30 | 39.44735 | -77.42899 | 12114 ft | 363 kts | 96° |
| 2026-05-06 11:30 | 39.44696 | -77.39639 | 12017 ft | 362 kts | 96° |
| 2026-05-06 11:30 | 39.44655 | -77.36387 | 11919 ft | 362 kts | 96° |
| 2026-05-06 11:31 | 39.44570 | -77.33143 | 11825 ft | 360 kts | 98° |
| 2026-05-06 11:31 | 39.44438 | -77.29912 | 11724 ft | 359 kts | 98° |
| 2026-05-06 11:31 | 39.44296 | -77.26688 | 11631 ft | 359 kts | 98° |
| 2026-05-06 11:31 | 39.44155 | -77.23467 | 11533 ft | 358 kts | 98° |
| 2026-05-06 11:32 | 39.44018 | -77.20251 | 11439 ft | 357 kts | 98° |
| 2026-05-06 11:32 | 39.43885 | -77.17043 | 11344 ft | 357 kts | 98° |
| 2026-05-06 11:32 | 39.43756 | -77.13848 | 11238 ft | 354 kts | 98° |
| 2026-05-06 11:32 | 39.43632 | -77.10759 | 11131 ft | 343 kts | 98° |
| 2026-05-06 11:33 | 39.43509 | -77.07728 | 11029 ft | 332 kts | 98° |
| 2026-05-06 11:33 | 39.43388 | -77.04776 | 10831 ft | 326 kts | 98° |
| 2026-05-06 11:33 | 39.43265 | -77.01865 | 10589 ft | 322 kts | 98° |
| 2026-05-06 11:33 | 39.43142 | -76.98986 | 10340 ft | 319 kts | 98° |
| 2026-05-06 11:34 | 39.43021 | -76.96146 | 10102 ft | 314 kts | 98° |
| 2026-05-06 11:34 | 39.42902 | -76.93350 | 9975 ft | 306 kts | 98° |
| 2026-05-06 11:34 | 39.42785 | -76.90611 | 9630 ft | 306 kts | 98° |
| 2026-05-06 11:34 | 39.42666 | -76.87881 | 9379 ft | 303 kts | 98° |
| 2026-05-06 11:35 | 39.42548 | -76.85175 | 9121 ft | 300 kts | 98° |
| 2026-05-06 11:35 | 39.42432 | -76.82495 | 8870 ft | 297 kts | 98° |
| 2026-05-06 11:35 | 39.42316 | -76.79843 | 8635 ft | 294 kts | 98° |
| 2026-05-06 11:35 | 39.42200 | -76.77213 | 8394 ft | 292 kts | 98° |
| 2026-05-06 11:36 | 39.42084 | -76.74600 | 8173 ft | 290 kts | 98° |
| 2026-05-06 11:36 | 39.41739 | -76.72074 | 7939 ft | 282 kts | 114° |
| 2026-05-06 11:36 | 39.41084 | -76.69706 | 7735 ft | 279 kts | 116° |
| 2026-05-06 11:36 | 39.40410 | -76.67358 | 7541 ft | 278 kts | 116° |
| 2026-05-06 11:37 | 39.39744 | -76.65012 | 7319 ft | 278 kts | 115° |
| 2026-05-06 11:37 | 39.39085 | -76.62655 | 7110 ft | 279 kts | 115° |
| 2026-05-06 11:37 | 39.38433 | -76.60289 | 6903 ft | 280 kts | 115° |
| 2026-05-06 11:37 | 39.37781 | -76.57909 | 6682 ft | 282 kts | 115° |
| 2026-05-06 11:38 | 39.37126 | -76.55517 | 6457 ft | 283 kts | 115° |
| 2026-05-06 11:38 | 39.36467 | -76.53114 | 6239 ft | 284 kts | 116° |
| 2026-05-06 11:38 | 39.35445 | -76.51011 | 5995 ft | 272 kts | 142° |
| 2026-05-06 11:38 | 39.33963 | -76.49605 | 5812 ft | 260 kts | 155° |
| 2026-05-06 11:39 | 39.32423 | -76.48413 | 5616 ft | 256 kts | 156° |
| 2026-05-06 11:39 | 39.30903 | -76.47240 | 5413 ft | 253 kts | 156° |
| 2026-05-06 11:39 | 39.29404 | -76.46073 | 5232 ft | 250 kts | 156° |
| 2026-05-06 11:39 | 39.27880 | -76.45105 | 5000 ft | 238 kts | 174° |
| 2026-05-06 11:40 | 39.26275 | -76.44942 | 4735 ft | 228 kts | 189° |
| 2026-05-06 11:40 | 39.24690 | -76.45066 | 4431 ft | 228 kts | 191° |
| 2026-05-06 11:40 | 39.23102 | -76.45215 | 4126 ft | 230 kts | 191° |
| 2026-05-06 11:40 | 39.21526 | -76.45356 | 3820 ft | 231 kts | 190° |
| 2026-05-06 11:41 | 39.19922 | -76.45510 | 3498 ft | 230 kts | 194° |
| 2026-05-06 11:41 | 39.18421 | -76.46066 | 3190 ft | 222 kts | 213° |
| 2026-05-06 11:41 | 39.17294 | -76.47358 | 2894 ft | 215 kts | 233° |
| 2026-05-06 11:41 | 39.16733 | -76.49089 | 2629 ft | 211 kts | 256° |
| 2026-05-06 11:42 | 39.16605 | -76.50921 | 2362 ft | 197 kts | 259° |
| 2026-05-06 11:42 | 39.16580 | -76.52594 | 2097 ft | 178 kts | 262° |
| 2026-05-06 11:42 | 39.16641 | -76.54110 | 1878 ft | 161 kts | 263° |
| 2026-05-06 11:42 | 39.16717 | -76.55486 | 1684 ft | 146 kts | 262° |
| 2026-05-06 11:43 | 39.16785 | -76.56761 | 1523 ft | 144 kts | 262° |
| 2026-05-06 11:43 | 39.16830 | -76.57616 | 1379 ft | 144 kts | 263° |
| 2026-05-06 11:43 | 39.16929 | -76.59354 | 1097 ft | 147 kts | 265° |
| 2026-05-06 11:44 | 39.17046 | -76.61602 | 800 ft | 152 kts | 268° |
| 2026-05-06 11:44 | 39.17133 | -76.62963 | 566 ft | 152 kts | 268° |
| 2026-05-06 11:44 | 39.17204 | -76.64327 | 317 ft | 150 kts | 269° |
| 2026-05-06 11:44 | 39.17285 | -76.65608 | 154 ft | 135 kts | 268° |
| 2026-05-06 11:45 | 39.17344 | -76.66683 | 151 ft | 98 kts | 274° |
| 2026-05-06 11:45 | 39.17381 | -76.67317 | 150 ft | 52 kts | 274° |
| 2026-05-06 11:45 | 39.17415 | -76.67645 | 149 ft | 25 kts | 306° |
| 2026-05-06 11:45 | 39.17508 | -76.67597 | 146 ft | 20 kts | 92° |
| 2026-05-06 11:46 | 39.17506 | -76.67465 | 146 ft | 14 kts | 72° |
| 2026-05-06 11:46 | 39.17557 | -76.67360 | 146 ft | 14 kts | 54° |
| 2026-05-06 11:46 | 39.17611 | -76.67264 | 146 ft | 13 kts | 54° |
| 2026-05-06 11:46 | 39.17603 | -76.67162 | 150 ft | 13 kts | 135° |
| 2026-05-06 11:47 | 39.17535 | -76.67093 | 151 ft | 12 kts | 140° |
| 2026-05-06 11:47 | 39.17484 | -76.67006 | 152 ft | 12 kts | 115° |
| 2026-05-06 11:47 | 39.17468 | -76.66902 | 153 ft | 12 kts | 90° |
| 2026-05-06 11:47 | 39.17513 | -76.66822 | 154 ft | 11 kts | 41° |
| 2026-05-06 11:48 | 39.17583 | -76.66779 | 155 ft | 11 kts | 6° |
| 2026-05-06 11:48 | 39.17659 | -76.66780 | 155 ft | 11 kts | 340° |
| 2026-05-06 11:48 | 39.17705 | -76.66818 | 155 ft | 6 kts | 322° |
| 2026-05-06 11:48 | 39.17738 | -76.66849 | 155 ft | 6 kts | 323° |
| 2026-05-06 11:49 | 39.17764 | -76.66876 | 155 ft | 4 kts | 304° |
| 2026-05-06 11:49 | 39.17751 | -76.66913 | 155 ft | 5 kts | 236° |
| 2026-05-06 11:49 | 39.17735 | -76.66943 | 155 ft | 0 kts | 234° |